sensor_id;sensor_type;location;lat;lon;timestamp;P1;durP1;ratioP1;P2;durP2;ratioP2
44246;SDS011;29922;0.000;0.000;2022-08-11T00:03:13;0.32;;;0.30;;
44246;SDS011;29922;0.000;0.000;2022-08-11T00:08:35;0.40;;;0.30;;
44246;SDS011;29922;0.000;0.000;2022-08-11T00:13:58;1.00;;;0.50;;
44246;SDS011;29922;0.000;0.000;2022-08-11T00:19:20;1.17;;;0.52;;
44246;SDS011;29922;0.000;0.000;2022-08-11T00:24:43;0.82;;;0.57;;
44246;SDS011;29922;0.000;0.000;2022-08-11T00:30:05;1.48;;;0.45;;
44246;SDS011;29922;0.000;0.000;2022-08-11T00:35:29;0.40;;;0.40;;
44246;SDS011;29922;0.000;0.000;2022-08-11T00:40:52;0.40;;;0.40;;
44246;SDS011;29922;0.000;0.000;2022-08-11T00:46:28;0.57;;;0.43;;
44246;SDS011;29922;0.000;0.000;2022-08-11T00:52:07;0.38;;;0.30;;
44246;SDS011;29922;0.000;0.000;2022-08-11T00:57:52;2.40;;;0.57;;
44246;SDS011;29922;0.000;0.000;2022-08-11T01:03:58;1.40;;;0.50;;
44246;SDS011;29922;0.000;0.000;2022-08-11T01:09:48;0.50;;;0.50;;
44246;SDS011;29922;0.000;0.000;2022-08-11T01:27:55;0.20;;;0.20;;
44246;SDS011;29922;0.000;0.000;2022-08-11T01:34:11;0.60;;;0.40;;
44246;SDS011;29922;0.000;0.000;2022-08-11T01:40:24;0.60;;;0.50;;
44246;SDS011;29922;0.000;0.000;2022-08-11T01:46:03;0.57;;;0.50;;
44246;SDS011;29922;0.000;0.000;2022-08-11T01:51:36;1.80;;;0.60;;
44246;SDS011;29922;0.000;0.000;2022-08-11T01:57:20;1.02;;;0.47;;
44246;SDS011;29922;0.000;0.000;2022-08-11T02:02:57;0.73;;;0.50;;
44246;SDS011;29922;0.000;0.000;2022-08-11T02:08:29;0.40;;;0.40;;
44246;SDS011;29922;0.000;0.000;2022-08-11T02:14:06;0.60;;;0.40;;
44246;SDS011;29922;0.000;0.000;2022-08-11T02:19:37;1.88;;;0.50;;
44246;SDS011;29922;0.000;0.000;2022-08-11T02:25:33;0.70;;;0.40;;
44246;SDS011;29922;0.000;0.000;2022-08-11T02:30:59;0.50;;;0.50;;
44246;SDS011;29922;0.000;0.000;2022-08-11T02:36:44;1.40;;;0.50;;
44246;SDS011;29922;0.000;0.000;2022-08-11T02:42:37;0.55;;;0.52;;
44246;SDS011;29922;0.000;0.000;2022-08-11T02:48:12;0.52;;;0.45;;
44246;SDS011;29922;0.000;0.000;2022-08-11T02:54:04;0.50;;;0.50;;
44246;SDS011;29922;0.000;0.000;2022-08-11T02:59:44;0.88;;;0.47;;
44246;SDS011;29922;0.000;0.000;2022-08-11T03:11:04;0.70;;;0.50;;
44246;SDS011;29922;0.000;0.000;2022-08-11T03:16:53;0.98;;;0.60;;
44246;SDS011;29922;0.000;0.000;2022-08-11T03:22:23;0.80;;;0.63;;
44246;SDS011;29922;0.000;0.000;2022-08-11T03:27:51;0.90;;;0.60;;
44246;SDS011;29922;0.000;0.000;2022-08-11T03:33:24;0.43;;;0.43;;
44246;SDS011;29922;0.000;0.000;2022-08-11T03:39:08;1.95;;;0.70;;
44246;SDS011;29922;0.000;0.000;2022-08-11T03:44:42;0.85;;;0.57;;
44246;SDS011;29922;0.000;0.000;2022-08-11T03:50:24;1.05;;;0.60;;
44246;SDS011;29922;0.000;0.000;2022-08-11T03:56:10;0.57;;;0.50;;
44246;SDS011;29922;0.000;0.000;2022-08-11T04:01:53;2.08;;;0.63;;
44246;SDS011;29922;0.000;0.000;2022-08-11T04:14:14;1.35;;;0.60;;
44246;SDS011;29922;0.000;0.000;2022-08-11T04:20:42;0.80;;;0.70;;
44246;SDS011;29922;0.000;0.000;2022-08-11T04:26:49;1.50;;;0.80;;
44246;SDS011;29922;0.000;0.000;2022-08-11T04:32:41;0.95;;;0.60;;
44246;SDS011;29922;0.000;0.000;2022-08-11T04:38:33;1.10;;;0.65;;
44246;SDS011;29922;0.000;0.000;2022-08-11T04:44:31;1.08;;;0.70;;
44246;SDS011;29922;0.000;0.000;2022-08-11T04:50:46;1.33;;;0.65;;
44246;SDS011;29922;0.000;0.000;2022-08-11T04:56:42;1.20;;;0.70;;
44246;SDS011;29922;0.000;0.000;2022-08-11T05:02:30;1.00;;;0.70;;
44246;SDS011;29922;0.000;0.000;2022-08-11T05:14:33;1.13;;;0.80;;
44246;SDS011;29922;0.000;0.000;2022-08-11T05:20:17;2.25;;;0.70;;
44246;SDS011;29922;0.000;0.000;2022-08-11T05:25:56;1.40;;;0.70;;
44246;SDS011;29922;0.000;0.000;2022-08-11T05:31:38;0.95;;;0.60;;
44246;SDS011;29922;0.000;0.000;2022-08-11T05:37:31;0.98;;;0.70;;
44246;SDS011;29922;0.000;0.000;2022-08-11T05:42:58;1.02;;;0.77;;
44246;SDS011;29922;0.000;0.000;2022-08-11T05:48:38;1.35;;;0.70;;
44246;SDS011;29922;0.000;0.000;2022-08-11T05:54:20;1.00;;;0.70;;
44246;SDS011;29922;0.000;0.000;2022-08-11T06:00:00;0.95;;;0.70;;
44246;SDS011;29922;0.000;0.000;2022-08-11T06:05:31;0.82;;;0.70;;
44246;SDS011;29922;0.000;0.000;2022-08-11T06:10:57;1.27;;;0.70;;
44246;SDS011;29922;0.000;0.000;2022-08-11T06:16:21;0.75;;;0.52;;
44246;SDS011;29922;0.000;0.000;2022-08-11T06:21:45;1.13;;;0.70;;
44246;SDS011;29922;0.000;0.000;2022-08-11T06:27:08;1.13;;;0.80;;
44246;SDS011;29922;0.000;0.000;2022-08-11T06:32:30;1.85;;;0.70;;
44246;SDS011;29922;0.000;0.000;2022-08-11T06:37:57;0.82;;;0.70;;
44246;SDS011;29922;0.000;0.000;2022-08-11T06:43:27;1.10;;;0.70;;
44246;SDS011;29922;0.000;0.000;2022-08-11T06:48:52;0.90;;;0.63;;
44246;SDS011;29922;0.000;0.000;2022-08-11T06:54:13;1.40;;;0.70;;
44246;SDS011;29922;0.000;0.000;2022-08-11T06:59:36;1.52;;;0.70;;
44246;SDS011;29922;0.000;0.000;2022-08-11T07:05:16;0.77;;;0.60;;
44246;SDS011;29922;0.000;0.000;2022-08-11T07:10:46;0.75;;;0.50;;
44246;SDS011;29922;0.000;0.000;2022-08-11T07:16:46;0.95;;;0.68;;
44246;SDS011;29922;0.000;0.000;2022-08-11T07:22:09;1.25;;;0.80;;
44246;SDS011;29922;0.000;0.000;2022-08-11T07:27:52;0.98;;;0.60;;
44246;SDS011;29922;0.000;0.000;2022-08-11T07:33:40;1.83;;;0.65;;
44246;SDS011;29922;0.000;0.000;2022-08-11T07:39:04;0.68;;;0.50;;
44246;SDS011;29922;0.000;0.000;2022-08-11T07:44:32;1.15;;;0.77;;
44246;SDS011;29922;0.000;0.000;2022-08-11T07:50:15;0.98;;;0.52;;
44246;SDS011;29922;0.000;0.000;2022-08-11T07:55:54;1.45;;;0.50;;
44246;SDS011;29922;0.000;0.000;2022-08-11T08:01:18;0.70;;;0.60;;
44246;SDS011;29922;0.000;0.000;2022-08-11T08:07:00;1.38;;;0.60;;
44246;SDS011;29922;0.000;0.000;2022-08-11T08:12:41;1.60;;;0.60;;
44246;SDS011;29922;0.000;0.000;2022-08-11T08:18:20;2.13;;;0.70;;
44246;SDS011;29922;0.000;0.000;2022-08-11T08:23:46;0.95;;;0.70;;
44246;SDS011;29922;0.000;0.000;2022-08-11T08:29:08;1.58;;;0.77;;
44246;SDS011;29922;0.000;0.000;2022-08-11T08:34:45;1.05;;;0.80;;
44246;SDS011;29922;0.000;0.000;2022-08-11T08:40:11;0.70;;;0.65;;
44246;SDS011;29922;0.000;0.000;2022-08-11T08:45:33;1.20;;;0.70;;
44246;SDS011;29922;0.000;0.000;2022-08-11T08:50:56;1.33;;;0.70;;
44246;SDS011;29922;0.000;0.000;2022-08-11T08:56:42;2.33;;;0.70;;
44246;SDS011;29922;0.000;0.000;2022-08-11T09:02:05;1.48;;;0.90;;
44246;SDS011;29922;0.000;0.000;2022-08-11T09:07:30;1.50;;;0.77;;
44246;SDS011;29922;0.000;0.000;2022-08-11T09:12:53;1.38;;;0.70;;
44246;SDS011;29922;0.000;0.000;2022-08-11T09:18:15;0.90;;;0.60;;
44246;SDS011;29922;0.000;0.000;2022-08-11T09:23:37;2.92;;;0.90;;
44246;SDS011;29922;0.000;0.000;2022-08-11T09:29:17;1.67;;;0.93;;
44246;SDS011;29922;0.000;0.000;2022-08-11T09:34:39;0.90;;;0.77;;
44246;SDS011;29922;0.000;0.000;2022-08-11T09:40:02;1.90;;;0.90;;
44246;SDS011;29922;0.000;0.000;2022-08-11T09:45:40;0.80;;;0.70;;
44246;SDS011;29922;0.000;0.000;2022-08-11T09:51:09;1.45;;;0.70;;
44246;SDS011;29922;0.000;0.000;2022-08-11T09:56:31;1.35;;;0.60;;
44246;SDS011;29922;0.000;0.000;2022-08-11T10:02:24;2.33;;;0.77;;
44246;SDS011;29922;0.000;0.000;2022-08-11T10:07:49;2.15;;;0.80;;
44246;SDS011;29922;0.000;0.000;2022-08-11T10:13:12;1.90;;;0.80;;
44246;SDS011;29922;0.000;0.000;2022-08-11T10:18:40;1.17;;;0.70;;
44246;SDS011;29922;0.000;0.000;2022-08-11T10:24:07;0.82;;;0.50;;
44246;SDS011;29922;0.000;0.000;2022-08-11T10:29:49;1.95;;;0.82;;
44246;SDS011;29922;0.000;0.000;2022-08-11T10:35:30;1.10;;;0.70;;
44246;SDS011;29922;0.000;0.000;2022-08-11T10:40:52;1.02;;;0.70;;
44246;SDS011;29922;0.000;0.000;2022-08-11T10:46:28;1.02;;;0.70;;
44246;SDS011;29922;0.000;0.000;2022-08-11T10:52:08;1.30;;;0.70;;
44246;SDS011;29922;0.000;0.000;2022-08-11T10:57:47;1.05;;;0.70;;
44246;SDS011;29922;0.000;0.000;2022-08-11T11:03:26;1.52;;;0.75;;
44246;SDS011;29922;0.000;0.000;2022-08-11T11:08:55;0.65;;;0.60;;
44246;SDS011;29922;0.000;0.000;2022-08-11T11:14:21;0.77;;;0.70;;
44246;SDS011;29922;0.000;0.000;2022-08-11T11:19:59;1.15;;;0.90;;
44246;SDS011;29922;0.000;0.000;2022-08-11T11:25:31;0.75;;;0.65;;
44246;SDS011;29922;0.000;0.000;2022-08-11T11:31:27;1.55;;;0.73;;
44246;SDS011;29922;0.000;0.000;2022-08-11T11:37:02;1.25;;;0.82;;
44246;SDS011;29922;0.000;0.000;2022-08-11T11:42:25;0.90;;;0.60;;
44246;SDS011;29922;0.000;0.000;2022-08-11T11:47:47;2.20;;;0.70;;
44246;SDS011;29922;0.000;0.000;2022-08-11T11:53:10;1.25;;;0.65;;
44246;SDS011;29922;0.000;0.000;2022-08-11T11:58:33;1.15;;;0.70;;
44246;SDS011;29922;0.000;0.000;2022-08-11T12:04:12;0.82;;;0.73;;
44246;SDS011;29922;0.000;0.000;2022-08-11T12:09:35;0.60;;;0.60;;
44246;SDS011;29922;0.000;0.000;2022-08-11T12:14:58;0.88;;;0.70;;
44246;SDS011;29922;0.000;0.000;2022-08-11T12:20:19;0.88;;;0.68;;
44246;SDS011;29922;0.000;0.000;2022-08-11T12:25:41;1.02;;;0.68;;
44246;SDS011;29922;0.000;0.000;2022-08-11T12:31:22;1.50;;;0.60;;
44246;SDS011;29922;0.000;0.000;2022-08-11T12:36:45;1.65;;;0.70;;
44246;SDS011;29922;0.000;0.000;2022-08-11T12:42:12;0.80;;;0.68;;
44246;SDS011;29922;0.000;0.000;2022-08-11T12:47:58;1.25;;;0.70;;
44246;SDS011;29922;0.000;0.000;2022-08-11T12:53:43;1.02;;;0.80;;
44246;SDS011;29922;0.000;0.000;2022-08-11T12:59:13;1.02;;;0.70;;
44246;SDS011;29922;0.000;0.000;2022-08-11T13:04:53;0.95;;;0.70;;
44246;SDS011;29922;0.000;0.000;2022-08-11T13:10:17;1.45;;;0.70;;
44246;SDS011;29922;0.000;0.000;2022-08-11T13:15:59;1.20;;;0.75;;
44246;SDS011;29922;0.000;0.000;2022-08-11T13:21:21;1.33;;;0.80;;
44246;SDS011;29922;0.000;0.000;2022-08-11T13:26:43;1.30;;;0.80;;
44246;SDS011;29922;0.000;0.000;2022-08-11T13:32:04;1.02;;;0.70;;
44246;SDS011;29922;0.000;0.000;2022-08-11T13:37:26;1.45;;;0.80;;
44246;SDS011;29922;0.000;0.000;2022-08-11T13:42:48;1.20;;;0.80;;
44246;SDS011;29922;0.000;0.000;2022-08-11T13:48:09;1.08;;;0.70;;
44246;SDS011;29922;0.000;0.000;2022-08-11T13:53:34;1.25;;;0.77;;
44246;SDS011;29922;0.000;0.000;2022-08-11T13:58:55;1.02;;;0.90;;
44246;SDS011;29922;0.000;0.000;2022-08-11T14:04:19;1.00;;;0.80;;
44246;SDS011;29922;0.000;0.000;2022-08-11T14:09:51;1.25;;;0.80;;
44246;SDS011;29922;0.000;0.000;2022-08-11T14:15:17;1.15;;;0.98;;
44246;SDS011;29922;0.000;0.000;2022-08-11T14:20:42;1.33;;;0.80;;
44246;SDS011;29922;0.000;0.000;2022-08-11T14:26:23;1.17;;;0.70;;
44246;SDS011;29922;0.000;0.000;2022-08-11T14:31:50;0.73;;;0.70;;
44246;SDS011;29922;0.000;0.000;2022-08-11T14:37:14;0.98;;;0.88;;
44246;SDS011;29922;0.000;0.000;2022-08-11T14:42:41;1.03;;;0.80;;
44246;SDS011;29922;0.000;0.000;2022-08-11T14:48:19;1.10;;;0.68;;
44246;SDS011;29922;0.000;0.000;2022-08-11T14:53:40;1.65;;;0.90;;
44246;SDS011;29922;0.000;0.000;2022-08-11T14:59:03;1.48;;;0.90;;
44246;SDS011;29922;0.000;0.000;2022-08-11T15:04:24;0.98;;;0.85;;
44246;SDS011;29922;0.000;0.000;2022-08-11T15:09:46;0.98;;;0.80;;
44246;SDS011;29922;0.000;0.000;2022-08-11T15:15:08;1.05;;;0.85;;
44246;SDS011;29922;0.000;0.000;2022-08-11T15:20:48;0.85;;;0.80;;
44246;SDS011;29922;0.000;0.000;2022-08-11T15:26:28;1.00;;;0.90;;
44246;SDS011;29922;0.000;0.000;2022-08-11T15:32:12;1.63;;;1.00;;
44246;SDS011;29922;0.000;0.000;2022-08-11T15:38:07;1.57;;;1.07;;
44246;SDS011;29922;0.000;0.000;2022-08-11T15:43:32;1.00;;;0.80;;
44246;SDS011;29922;0.000;0.000;2022-08-11T15:49:19;1.00;;;0.80;;
44246;SDS011;29922;0.000;0.000;2022-08-11T15:54:47;1.15;;;0.88;;
44246;SDS011;29922;0.000;0.000;2022-08-11T16:00:09;1.25;;;0.90;;
44246;SDS011;29922;0.000;0.000;2022-08-11T16:05:49;1.25;;;0.90;;
44246;SDS011;29922;0.000;0.000;2022-08-11T16:11:10;1.17;;;0.80;;
44246;SDS011;29922;0.000;0.000;2022-08-11T16:16:33;1.10;;;1.00;;
44246;SDS011;29922;0.000;0.000;2022-08-11T16:21:57;1.30;;;0.90;;
44246;SDS011;29922;0.000;0.000;2022-08-11T16:27:18;1.30;;;1.00;;
44246;SDS011;29922;0.000;0.000;2022-08-11T16:32:40;1.52;;;0.82;;
44246;SDS011;29922;0.000;0.000;2022-08-11T16:38:05;2.58;;;1.10;;
44246;SDS011;29922;0.000;0.000;2022-08-11T16:43:45;0.45;;;0.45;;
44246;SDS011;29922;0.000;0.000;2022-08-11T16:49:41;0.75;;;0.75;;
44246;SDS011;29922;0.000;0.000;2022-08-11T16:55:07;1.25;;;0.80;;
44246;SDS011;29922;0.000;0.000;2022-08-11T17:00:28;1.63;;;0.80;;
44246;SDS011;29922;0.000;0.000;2022-08-11T17:05:51;1.00;;;0.80;;
44246;SDS011;29922;0.000;0.000;2022-08-11T17:11:33;1.05;;;0.82;;
44246;SDS011;29922;0.000;0.000;2022-08-11T17:17:20;2.15;;;0.88;;
44246;SDS011;29922;0.000;0.000;2022-08-11T17:22:46;1.38;;;0.90;;
44246;SDS011;29922;0.000;0.000;2022-08-11T17:28:29;1.17;;;0.73;;
44246;SDS011;29922;0.000;0.000;2022-08-11T17:33:53;1.48;;;0.85;;
44246;SDS011;29922;0.000;0.000;2022-08-11T17:39:33;1.67;;;0.80;;
44246;SDS011;29922;0.000;0.000;2022-08-11T17:44:56;0.95;;;0.80;;
44246;SDS011;29922;0.000;0.000;2022-08-11T17:50:36;1.10;;;0.73;;
44246;SDS011;29922;0.000;0.000;2022-08-11T17:55:57;1.38;;;0.60;;
44246;SDS011;29922;0.000;0.000;2022-08-11T18:01:47;1.98;;;0.80;;
44246;SDS011;29922;0.000;0.000;2022-08-11T18:07:11;1.80;;;0.90;;
44246;SDS011;29922;0.000;0.000;2022-08-11T18:12:51;1.10;;;0.90;;
44246;SDS011;29922;0.000;0.000;2022-08-11T18:18:33;1.40;;;0.60;;
44246;SDS011;29922;0.000;0.000;2022-08-11T18:24:13;1.42;;;0.70;;
44246;SDS011;29922;0.000;0.000;2022-08-11T18:29:52;1.23;;;0.77;;
44246;SDS011;29922;0.000;0.000;2022-08-11T18:35:34;1.20;;;0.80;;
44246;SDS011;29922;0.000;0.000;2022-08-11T18:41:13;1.10;;;0.65;;
44246;SDS011;29922;0.000;0.000;2022-08-11T18:46:53;0.90;;;0.75;;
44246;SDS011;29922;0.000;0.000;2022-08-11T18:52:34;0.82;;;0.70;;
44246;SDS011;29922;0.000;0.000;2022-08-11T18:58:16;1.23;;;0.85;;
44246;SDS011;29922;0.000;0.000;2022-08-11T19:04:03;0.98;;;0.88;;
44246;SDS011;29922;0.000;0.000;2022-08-11T19:09:45;0.80;;;0.70;;
44246;SDS011;29922;0.000;0.000;2022-08-11T19:15:25;1.58;;;0.80;;
44246;SDS011;29922;0.000;0.000;2022-08-11T19:21:05;0.75;;;0.70;;
44246;SDS011;29922;0.000;0.000;2022-08-11T19:26:47;1.23;;;0.90;;
44246;SDS011;29922;0.000;0.000;2022-08-11T19:32:29;1.27;;;0.90;;
44246;SDS011;29922;0.000;0.000;2022-08-11T19:38:08;1.23;;;0.98;;
44246;SDS011;29922;0.000;0.000;2022-08-11T19:43:49;1.00;;;0.80;;
44246;SDS011;29922;0.000;0.000;2022-08-11T19:49:28;1.33;;;0.77;;
44246;SDS011;29922;0.000;0.000;2022-08-11T19:55:07;0.90;;;0.77;;
44246;SDS011;29922;0.000;0.000;2022-08-11T20:00:48;1.17;;;0.88;;
44246;SDS011;29922;0.000;0.000;2022-08-11T20:06:28;1.75;;;1.00;;
44246;SDS011;29922;0.000;0.000;2022-08-11T20:12:08;0.70;;;0.70;;
44246;SDS011;29922;0.000;0.000;2022-08-11T20:17:49;0.95;;;0.85;;
44246;SDS011;29922;0.000;0.000;2022-08-11T20:23:29;1.52;;;0.90;;
44246;SDS011;29922;0.000;0.000;2022-08-11T20:29:08;3.38;;;1.00;;
44246;SDS011;29922;0.000;0.000;2022-08-11T20:34:49;0.95;;;0.82;;
44246;SDS011;29922;0.000;0.000;2022-08-11T20:40:29;2.13;;;1.20;;
44246;SDS011;29922;0.000;0.000;2022-08-11T20:46:07;2.60;;;1.70;;
44246;SDS011;29922;0.000;0.000;2022-08-11T20:51:48;2.83;;;1.80;;
44246;SDS011;29922;0.000;0.000;2022-08-11T20:57:27;2.47;;;1.33;;
44246;SDS011;29922;0.000;0.000;2022-08-11T21:03:07;2.33;;;1.67;;
44246;SDS011;29922;0.000;0.000;2022-08-11T21:08:47;3.33;;;1.40;;
44246;SDS011;29922;0.000;0.000;2022-08-11T21:14:26;1.95;;;1.25;;
44246;SDS011;29922;0.000;0.000;2022-08-11T21:20:06;2.97;;;1.50;;
44246;SDS011;29922;0.000;0.000;2022-08-11T21:25:48;1.85;;;1.10;;
44246;SDS011;29922;0.000;0.000;2022-08-11T21:31:31;1.83;;;1.17;;
44246;SDS011;29922;0.000;0.000;2022-08-11T21:37:11;1.75;;;1.00;;
44246;SDS011;29922;0.000;0.000;2022-08-11T21:42:52;2.28;;;0.90;;
44246;SDS011;29922;0.000;0.000;2022-08-11T21:48:32;1.70;;;1.00;;
44246;SDS011;29922;0.000;0.000;2022-08-11T21:54:12;1.45;;;1.10;;
44246;SDS011;29922;0.000;0.000;2022-08-11T21:59:54;0.95;;;0.80;;
44246;SDS011;29922;0.000;0.000;2022-08-11T22:05:34;1.50;;;1.00;;
44246;SDS011;29922;0.000;0.000;2022-08-11T22:11:14;1.48;;;0.70;;
44246;SDS011;29922;0.000;0.000;2022-08-11T22:16:55;1.15;;;0.75;;
44246;SDS011;29922;0.000;0.000;2022-08-11T22:22:33;1.20;;;0.80;;
44246;SDS011;29922;0.000;0.000;2022-08-11T22:28:13;1.13;;;0.82;;
44246;SDS011;29922;0.000;0.000;2022-08-11T22:33:53;1.15;;;0.85;;
44246;SDS011;29922;0.000;0.000;2022-08-11T22:39:32;1.30;;;0.90;;
44246;SDS011;29922;0.000;0.000;2022-08-11T22:45:13;1.35;;;0.80;;
44246;SDS011;29922;0.000;0.000;2022-08-11T22:50:53;1.13;;;0.80;;
44246;SDS011;29922;0.000;0.000;2022-08-11T22:56:32;1.48;;;0.90;;
44246;SDS011;29922;0.000;0.000;2022-08-11T23:02:11;0.93;;;0.77;;
44246;SDS011;29922;0.000;0.000;2022-08-11T23:07:52;1.73;;;0.80;;
44246;SDS011;29922;0.000;0.000;2022-08-11T23:13:32;1.05;;;0.73;;
44246;SDS011;29922;0.000;0.000;2022-08-11T23:19:12;0.77;;;0.70;;
44246;SDS011;29922;0.000;0.000;2022-08-11T23:24:51;0.98;;;0.70;;
44246;SDS011;29922;0.000;0.000;2022-08-11T23:30:30;1.23;;;0.80;;
44246;SDS011;29922;0.000;0.000;2022-08-11T23:36:11;1.25;;;0.70;;
44246;SDS011;29922;0.000;0.000;2022-08-11T23:41:50;1.30;;;0.80;;
44246;SDS011;29922;0.000;0.000;2022-08-11T23:47:29;1.30;;;0.80;;
44246;SDS011;29922;0.000;0.000;2022-08-11T23:53:08;0.70;;;0.70;;
44246;SDS011;29922;0.000;0.000;2022-08-11T23:58:49;1.52;;;0.80;;
